createdAt,value
2022-12-11T00:01:12.124Z,96.55
2022-12-11T00:03:40.911Z,96.61
2022-12-11T00:06:11.566Z,96.74
2022-12-11T00:08:42.294Z,96.46
2022-12-11T00:11:13.850Z,96.79
2022-12-11T00:13:41.908Z,96.86
2022-12-11T00:16:10.602Z,96.87
2022-12-11T00:18:38.653Z,96.80
2022-12-11T00:21:08.505Z,96.39
2022-12-11T00:23:37.354Z,96.32
2022-12-11T00:26:12.911Z,96.28
2022-12-11T00:28:41.479Z,96.65
2022-12-11T00:31:14.353Z,96.66
2022-12-11T00:33:43.994Z,96.58
2022-12-11T00:36:20.390Z,96.85
2022-12-11T00:38:49.448Z,97.04
2022-12-11T00:41:18.061Z,96.92
2022-12-11T00:43:46.203Z,96.88
2022-12-11T00:46:14.562Z,97.25
2022-12-11T00:48:42.383Z,97.20
2022-12-11T00:51:10.977Z,96.56
2022-12-11T00:53:40.150Z,96.92
2022-12-11T00:56:16.788Z,97.09
2022-12-11T00:58:46.021Z,97.21
2022-12-11T01:01:25.496Z,97.20
2022-12-11T01:03:54.299Z,97.30
2022-12-11T01:06:28.309Z,97.24
2022-12-11T01:09:15.663Z,97.06
2022-12-11T01:11:46.225Z,97.26
2022-12-11T01:14:14.666Z,97.48
2022-12-11T01:16:42.547Z,97.64
2022-12-11T01:19:10.377Z,97.44
2022-12-11T01:21:41.486Z,97.38
2022-12-11T01:24:09.353Z,97.48
2022-12-11T01:26:37.203Z,97.34
2022-12-11T01:29:05.257Z,97.39
2022-12-11T01:31:33.983Z,97.56
2022-12-11T01:34:01.839Z,97.19
2022-12-11T01:36:30.036Z,97.16
2022-12-11T01:39:00.843Z,97.35
2022-12-11T01:41:28.774Z,97.40
2022-12-11T01:44:08.854Z,97.39
2022-12-11T01:46:37.262Z,97.10
2022-12-11T01:49:09.529Z,97.44
2022-12-11T01:51:59.490Z,97.20
2022-12-11T01:54:30.573Z,97.10
2022-12-11T01:57:09.477Z,97.45
2022-12-11T01:59:41.522Z,97.14
2022-12-11T02:02:21.941Z,97.00
2022-12-11T02:04:50.400Z,97.38
2022-12-11T02:07:18.302Z,97.63
2022-12-11T02:09:48.066Z,97.14
2022-12-11T02:12:59.761Z,97.32
2022-12-11T02:15:50.026Z,97.12
2022-12-11T02:18:37.083Z,97.69
2022-12-11T02:21:21.273Z,97.75
2022-12-11T02:24:17.692Z,97.81
2022-12-11T02:26:51.817Z,97.83
2022-12-11T02:29:35.344Z,97.67
2022-12-11T02:32:12.064Z,97.51
2022-12-11T02:35:09.917Z,97.86
2022-12-11T02:37:42.251Z,97.85
2022-12-11T02:40:13.443Z,97.78
2022-12-11T02:42:44.235Z,97.84
2022-12-11T02:45:14.285Z,97.29
2022-12-11T02:47:47.727Z,97.41
2022-12-11T02:50:19.926Z,97.52
2022-12-11T02:52:51.114Z,97.47
2022-12-11T02:55:20.224Z,97.57
2022-12-11T02:57:51.437Z,97.52
2022-12-11T03:00:20.190Z,97.78
2022-12-11T03:02:48.285Z,98.00
2022-12-11T03:05:16.703Z,97.90
2022-12-11T03:07:48.144Z,97.75
2022-12-11T03:10:19.486Z,97.63
2022-12-11T03:12:53.805Z,97.38
2022-12-11T03:15:30.507Z,97.30
2022-12-11T03:18:20.459Z,97.66
2022-12-11T03:21:09.649Z,97.70
2022-12-11T03:24:11.683Z,97.62
2022-12-11T03:26:55.968Z,97.74
2022-12-11T03:29:30.715Z,98.04
2022-12-11T03:32:13.728Z,98.07
2022-12-11T03:34:59.977Z,98.01
2022-12-11T03:37:31.785Z,97.72
2022-12-11T03:40:05.557Z,97.54
2022-12-11T03:42:34.811Z,97.46
2022-12-11T03:45:05.358Z,97.79
2022-12-11T03:47:33.918Z,97.74
2022-12-11T03:50:04.527Z,97.90
2022-12-11T03:52:33.833Z,97.68
2022-12-11T03:55:04.721Z,97.83
2022-12-11T03:57:36.707Z,97.86
2022-12-11T04:00:17.127Z,97.81
2022-12-11T04:02:45.769Z,97.75
2022-12-11T04:05:14.014Z,97.80
2022-12-11T04:07:42.052Z,97.51
2022-12-11T04:10:10.480Z,97.55
2022-12-11T04:12:38.387Z,97.67
2022-12-11T04:15:06.669Z,97.97
2022-12-11T04:17:55.907Z,98.03
2022-12-11T04:20:42.399Z,98.13
2022-12-11T04:23:34.354Z,97.99
2022-12-11T04:26:07.818Z,97.88
2022-12-11T04:28:36.646Z,97.98
2022-12-11T04:31:04.919Z,98.06
2022-12-11T04:33:33.014Z,97.97
2022-12-11T04:36:01.680Z,98.09
2022-12-11T04:38:29.377Z,98.06
2022-12-11T04:41:09.233Z,98.15
2022-12-11T04:43:37.834Z,98.12
2022-12-11T04:46:06.896Z,98.17
2022-12-11T04:48:35.770Z,98.13
2022-12-11T04:51:04.777Z,98.03
2022-12-11T04:53:32.923Z,98.04
2022-12-11T04:56:12.334Z,97.93
2022-12-11T04:58:42.106Z,97.97
2022-12-11T05:01:22.719Z,98.08
2022-12-11T05:03:51.077Z,97.94
2022-12-11T05:06:18.911Z,97.91
2022-12-11T05:08:46.724Z,97.90
2022-12-11T05:11:16.631Z,97.94
2022-12-11T05:13:45.670Z,97.95
2022-12-11T05:16:16.459Z,97.86
2022-12-11T05:18:44.691Z,97.75
2022-12-11T05:21:15.863Z,97.74
2022-12-11T05:23:44.146Z,97.65
2022-12-11T05:26:19.217Z,97.73
2022-12-11T05:28:51.345Z,97.76
2022-12-11T05:31:22.362Z,97.79
2022-12-11T05:33:51.305Z,97.83
2022-12-11T05:36:26.474Z,97.88
2022-12-11T05:38:55.690Z,97.86
2022-12-11T05:41:25.830Z,97.87
2022-12-11T05:43:54.300Z,97.74
2022-12-11T05:46:31.232Z,97.72
2022-12-11T05:49:01.980Z,97.73
2022-12-11T05:51:30.907Z,97.74
2022-12-11T05:53:59.867Z,97.73
2022-12-11T05:56:35.041Z,97.46
2022-12-11T05:59:05.168Z,97.50
2022-12-11T06:01:42.764Z,97.56
2022-12-11T06:04:12.543Z,97.70
2022-12-11T06:06:41.066Z,97.81
2022-12-11T06:09:08.837Z,97.67
2022-12-11T06:11:37.251Z,97.67
2022-12-11T06:14:05.534Z,97.63
2022-12-11T06:16:33.562Z,97.90
2022-12-11T06:19:02.173Z,97.96
2022-12-11T06:21:32.607Z,97.92
2022-12-11T06:24:05.928Z,97.70
2022-12-11T06:26:34.061Z,97.61
2022-12-11T06:29:01.834Z,97.58
2022-12-11T06:31:29.719Z,97.81
2022-12-11T06:33:57.909Z,97.62
2022-12-11T06:36:26.054Z,97.92
2022-12-11T06:38:56.812Z,97.51
2022-12-11T06:41:25.468Z,97.63
2022-12-11T06:43:53.292Z,98.13
2022-12-11T06:46:21.915Z,98.43
2022-12-11T06:48:51.623Z,98.69
2022-12-11T06:51:22.062Z,98.36
2022-12-11T06:53:56.367Z,98.90
2022-12-11T06:56:25.113Z,98.25
2022-12-11T06:58:53.580Z,97.64
2022-12-11T07:01:27.771Z,97.55
2022-12-11T07:03:58.469Z,97.52
2022-12-11T07:06:28.798Z,97.30
2022-12-11T07:08:57.557Z,97.40
2022-12-11T07:11:25.321Z,97.09
2022-12-11T07:13:53.080Z,97.31
2022-12-11T07:16:21.837Z,98.70
2022-12-11T07:18:51.320Z,98.70
2022-12-11T07:21:20.828Z,97.51
2022-12-11T07:23:49.996Z,96.99
2022-12-11T07:26:20.996Z,96.65
2022-12-11T07:28:49.621Z,96.57
2022-12-11T07:31:23.312Z,96.03
2022-12-11T07:33:58.184Z,95.84
2022-12-11T07:36:26.903Z,96.03
2022-12-11T07:38:55.568Z,95.94
2022-12-11T07:41:23.803Z,95.85
2022-12-11T07:43:53.961Z,96.38
2022-12-11T07:46:28.616Z,96.27
2022-12-11T07:48:56.480Z,95.86
2022-12-11T07:51:30.771Z,95.77
2022-12-11T07:54:05.202Z,96.35
2022-12-11T07:56:35.924Z,96.23
2022-12-11T07:59:05.989Z,95.70
2022-12-11T08:01:36.800Z,95.61
2022-12-11T08:04:10.408Z,95.82
2022-12-11T08:06:40.521Z,95.69
2022-12-11T08:09:14.684Z,95.60
2022-12-11T08:11:49.560Z,95.38
2022-12-11T08:14:18.296Z,95.58
2022-12-11T08:16:46.216Z,95.51
2022-12-11T08:19:14.643Z,95.16
2022-12-11T08:21:43.032Z,95.15
2022-12-11T08:24:11.000Z,94.54
2022-12-11T08:26:39.841Z,94.12
2022-12-11T08:29:09.635Z,94.00
2022-12-11T08:31:39.676Z,93.70
2022-12-11T08:34:07.603Z,93.79
2022-12-11T08:36:35.688Z,94.01
2022-12-11T08:39:03.584Z,93.77
2022-12-11T08:41:31.938Z,93.90
2022-12-11T08:44:01.994Z,93.64
2022-12-11T08:46:32.776Z,94.06
2022-12-11T08:49:01.082Z,93.56
2022-12-11T08:51:30.190Z,93.72
2022-12-11T08:54:02.393Z,93.29
2022-12-11T08:56:30.905Z,93.36
2022-12-11T08:59:02.277Z,93.59
2022-12-11T09:01:30.685Z,93.79
2022-12-11T09:03:58.964Z,93.49
2022-12-11T09:06:28.549Z,93.68
2022-12-11T09:08:59.248Z,93.60
2022-12-11T09:11:30.684Z,93.71
2022-12-11T09:14:05.172Z,93.78
2022-12-11T09:16:40.694Z,93.89
2022-12-11T09:19:14.488Z,93.89
2022-12-11T09:21:43.546Z,93.92
2022-12-11T09:24:13.745Z,94.13
2022-12-11T09:26:42.455Z,94.31
2022-12-11T09:29:12.505Z,94.37
2022-12-11T09:31:41.067Z,94.71
2022-12-11T09:34:12.041Z,95.29
2022-12-11T09:36:41.658Z,94.96
2022-12-11T09:39:12.576Z,94.74
2022-12-11T09:42:03.803Z,94.68
2022-12-11T09:44:48.974Z,95.14
2022-12-11T09:47:35.120Z,95.78
2022-12-11T09:50:12.061Z,96.65
2022-12-11T09:53:14.455Z,96.86
2022-12-11T09:56:07.696Z,96.86
2022-12-11T09:58:52.327Z,97.03
2022-12-11T10:01:41.331Z,97.00
2022-12-11T10:04:28.082Z,96.87
2022-12-11T10:07:17.146Z,96.45
2022-12-11T10:10:06.399Z,96.13
2022-12-11T10:13:02.769Z,96.12
2022-12-11T10:15:30.946Z,96.19
2022-12-11T10:18:04.887Z,96.22
2022-12-11T10:20:39.556Z,96.12
2022-12-11T10:23:10.090Z,96.65
2022-12-11T10:26:06.367Z,96.58
2022-12-11T10:28:35.495Z,96.31
2022-12-11T10:31:37.814Z,96.89
2022-12-11T10:34:15.280Z,97.05
2022-12-11T10:36:44.065Z,96.89
2022-12-11T10:39:15.839Z,97.32
2022-12-11T10:41:47.028Z,97.70
2022-12-11T10:44:26.407Z,97.96
2022-12-11T10:47:15.973Z,98.08
2022-12-11T10:49:52.625Z,97.84
2022-12-11T10:52:24.334Z,97.44
2022-12-11T10:55:00.007Z,97.00
2022-12-11T10:57:35.109Z,97.00
2022-12-11T11:00:23.055Z,96.79
2022-12-11T11:02:51.146Z,96.66
2022-12-11T11:05:36.516Z,96.82
2022-12-11T11:08:16.126Z,97.06
2022-12-11T11:11:37.094Z,96.79
2022-12-11T11:14:08.291Z,97.05
2022-12-11T11:16:39.185Z,97.18
2022-12-11T11:19:08.017Z,97.05
2022-12-11T11:21:36.260Z,97.46
2022-12-11T11:24:04.381Z,97.26
2022-12-11T11:27:04.730Z,97.32
2022-12-11T11:29:34.920Z,97.08
2022-12-11T11:32:22.969Z,96.99
2022-12-11T11:34:50.879Z,97.73
2022-12-11T11:37:33.338Z,97.70
2022-12-11T11:40:12.258Z,98.22
2022-12-11T11:42:56.877Z,97.76
2022-12-11T11:45:36.519Z,97.32
2022-12-11T11:48:20.621Z,97.43
2022-12-11T11:50:50.816Z,97.52
2022-12-11T11:53:26.479Z,97.89
2022-12-11T11:56:24.174Z,97.25
2022-12-11T11:59:14.684Z,96.97
2022-12-11T12:01:43.795Z,97.10
2022-12-11T12:04:12.755Z,97.13
2022-12-11T12:07:01.978Z,97.39
2022-12-11T12:09:42.308Z,97.27
2022-12-11T12:12:33.812Z,97.59
2022-12-11T12:15:11.231Z,97.57
2022-12-11T12:18:14.287Z,97.17
2022-12-11T12:20:45.264Z,97.50
2022-12-11T12:23:37.397Z,97.95
2022-12-11T12:26:24.120Z,98.04
2022-12-11T12:29:10.142Z,98.27
2022-12-11T12:32:05.580Z,98.06
2022-12-11T12:34:51.719Z,98.59
2022-12-11T12:37:53.419Z,98.46
2022-12-11T12:40:41.127Z,98.66
2022-12-11T12:43:53.685Z,98.82
2022-12-11T12:47:02.146Z,98.82
2022-12-11T12:49:43.298Z,98.75
2022-12-11T12:52:26.702Z,99.14
2022-12-11T12:55:16.545Z,98.84
2022-12-11T12:57:51.542Z,98.66
2022-12-11T13:00:41.558Z,98.28
2022-12-11T13:03:21.116Z,98.53
2022-12-11T13:06:05.201Z,98.98
2022-12-11T13:08:52.066Z,99.08
2022-12-11T13:11:21.943Z,99.13
2022-12-11T13:14:04.784Z,98.06
2022-12-11T13:16:39.699Z,97.85
2022-12-11T13:19:42.418Z,97.35
2022-12-11T13:22:13.643Z,97.08
2022-12-11T13:24:53.190Z,97.02
2022-12-11T13:27:27.904Z,96.86
2022-12-11T13:30:30.379Z,97.46
2022-12-11T13:33:06.549Z,97.55
2022-12-11T13:35:35.680Z,97.84
2022-12-11T13:38:23.041Z,98.05
2022-12-11T13:40:54.937Z,98.27
2022-12-11T13:43:27.460Z,97.89
2022-12-11T13:45:59.878Z,98.22
2022-12-11T13:48:37.383Z,98.02
2022-12-11T13:51:06.512Z,97.81
2022-12-11T13:53:34.703Z,97.65
2022-12-11T13:56:08.136Z,97.72
2022-12-11T13:58:39.510Z,97.02
2022-12-11T14:01:07.981Z,97.03
2022-12-11T14:03:36.708Z,96.77
2022-12-11T14:06:04.943Z,97.09
2022-12-11T14:08:37.547Z,96.34
2022-12-11T14:11:05.756Z,95.84
2022-12-11T14:13:40.609Z,96.67
2022-12-11T14:16:08.915Z,96.72
2022-12-11T14:18:37.592Z,96.97
2022-12-11T14:21:06.955Z,97.16
2022-12-11T14:23:37.828Z,95.53
2022-12-11T14:26:19.243Z,95.07
2022-12-11T14:28:47.596Z,94.99
2022-12-11T14:31:23.086Z,95.46
2022-12-11T14:34:02.105Z,95.06
2022-12-11T14:36:32.175Z,95.00
2022-12-11T14:39:12.418Z,94.75
2022-12-11T14:41:45.861Z,94.67
2022-12-11T14:44:17.769Z,94.80
2022-12-11T14:47:07.333Z,94.83
2022-12-11T14:49:41.200Z,95.11
2022-12-11T14:52:31.654Z,95.42
2022-12-11T14:55:25.377Z,95.25
2022-12-11T14:57:56.030Z,94.81
2022-12-11T15:00:25.740Z,94.91
2022-12-11T15:03:20.737Z,95.54
2022-12-11T15:05:56.262Z,95.24
2022-12-11T15:08:26.963Z,95.64
2022-12-11T15:11:04.926Z,96.24
2022-12-11T15:13:35.128Z,96.21
2022-12-11T15:16:06.451Z,96.10
2022-12-11T15:18:36.482Z,96.93
2022-12-11T15:21:07.604Z,96.40
2022-12-11T15:23:55.577Z,96.05
2022-12-11T15:26:39.374Z,95.77
2022-12-11T15:29:26.542Z,95.34
2022-12-11T15:32:09.879Z,95.40
2022-12-11T15:34:46.557Z,95.20
2022-12-11T15:37:27.105Z,95.29
2022-12-11T15:39:56.772Z,95.44
2022-12-11T15:42:43.279Z,94.92
2022-12-11T15:45:19.476Z,94.77
2022-12-11T15:47:49.595Z,94.81
2022-12-11T15:50:21.158Z,95.06
2022-12-11T15:52:50.538Z,95.20
2022-12-11T15:55:19.000Z,94.86
2022-12-11T15:58:02.294Z,95.01
2022-12-11T16:00:30.857Z,94.66
2022-12-11T16:02:59.230Z,94.54
2022-12-11T16:05:27.433Z,94.45
2022-12-11T16:07:59.887Z,94.34
2022-12-11T16:10:28.373Z,94.39
2022-12-11T16:12:59.879Z,94.54
2022-12-11T16:15:28.838Z,94.51
2022-12-11T16:18:17.879Z,94.46
2022-12-11T16:20:47.161Z,94.48
2022-12-11T16:23:17.473Z,94.36
2022-12-11T16:28:32.226Z,94.86
2022-12-11T16:30:59.984Z,94.39
2022-12-11T16:33:27.868Z,94.29
2022-12-11T16:35:56.071Z,94.66
2022-12-11T16:38:23.793Z,94.91
2022-12-11T16:41:00.244Z,94.63
2022-12-11T16:43:28.345Z,94.94
2022-12-11T16:45:56.331Z,94.67
2022-12-11T16:48:24.378Z,94.45
2022-12-11T16:50:58.959Z,94.26
2022-12-11T16:53:26.825Z,94.35
2022-12-11T16:55:55.346Z,94.21
2022-12-11T16:58:23.106Z,94.13
2022-12-11T17:00:51.036Z,94.09
2022-12-11T17:03:22.021Z,94.58
2022-12-11T17:05:49.718Z,94.49
2022-12-11T17:08:17.511Z,94.53
2022-12-11T17:10:45.733Z,94.77
2022-12-11T17:13:13.757Z,94.99
2022-12-11T17:15:45.740Z,94.75
2022-12-11T17:18:14.438Z,95.07
2022-12-11T17:20:43.302Z,94.74
2022-12-11T17:23:12.220Z,94.70
2022-12-11T17:25:45.628Z,94.97
2022-12-11T17:28:13.949Z,95.14
2022-12-11T17:30:44.946Z,94.92
2022-12-11T17:33:12.884Z,95.39
2022-12-11T17:35:40.621Z,95.09
2022-12-11T17:38:08.761Z,95.47
2022-12-11T17:40:41.496Z,95.29
2022-12-11T17:43:11.428Z,95.22
2022-12-11T17:45:52.599Z,95.13
2022-12-11T17:48:24.350Z,95.01
2022-12-11T17:50:53.495Z,94.66
2022-12-11T17:53:23.053Z,95.05
2022-12-11T17:55:52.159Z,95.06
2022-12-11T17:58:22.864Z,94.95
2022-12-11T18:00:53.451Z,94.99
2022-12-11T18:03:22.894Z,95.05
2022-12-11T18:05:53.494Z,95.40
2022-12-11T18:08:26.407Z,95.66
2022-12-11T18:10:54.839Z,95.52
2022-12-11T18:13:23.803Z,95.31
2022-12-11T18:16:07.285Z,95.44
2022-12-11T18:18:35.691Z,95.42
2022-12-11T18:21:03.766Z,95.60
2022-12-11T18:26:18.651Z,95.60
2022-12-11T18:28:47.321Z,95.36
2022-12-11T18:31:16.007Z,95.78
2022-12-11T18:36:31.270Z,95.83
2022-12-11T18:38:59.457Z,95.68
2022-12-11T18:41:27.219Z,95.96
2022-12-11T18:50:30.729Z,96.23
2022-12-11T18:52:59.006Z,96.13
2022-12-11T18:55:27.099Z,95.94
2022-12-11T18:57:55.023Z,96.44
2022-12-11T19:00:26.165Z,96.12
2022-12-11T19:02:53.866Z,96.13
2022-12-11T19:05:21.657Z,96.10
2022-12-11T19:07:50.116Z,95.93
2022-12-11T19:10:18.139Z,96.20
2022-12-11T19:12:46.220Z,96.50
2022-12-11T19:15:17.371Z,96.33
2022-12-11T19:17:47.589Z,96.12
2022-12-11T19:20:47.566Z,96.20
2022-12-11T19:23:04.322Z,96.30
2022-12-11T19:25:33.110Z,96.79
2022-12-11T19:28:01.389Z,96.70
2022-12-11T19:30:29.276Z,96.51
2022-12-11T19:32:58.645Z,96.30
2022-12-11T19:35:26.510Z,96.28
2022-12-11T19:37:55.783Z,96.61
2022-12-11T19:40:27.168Z,96.47
2022-12-11T19:42:54.983Z,96.32
2022-12-11T19:45:23.147Z,96.47
2022-12-11T19:47:50.966Z,96.45
2022-12-11T19:50:21.802Z,96.28
2022-12-11T19:52:50.023Z,96.28
2022-12-11T19:55:19.923Z,96.09
2022-12-11T19:57:48.023Z,95.74
2022-12-11T20:00:16.604Z,95.54
2022-12-11T20:02:44.858Z,95.64
2022-12-11T20:05:13.456Z,95.72
2022-12-11T20:07:41.530Z,95.69
2022-12-11T20:10:10.312Z,95.98
2022-12-11T20:12:38.185Z,96.04
2022-12-11T20:15:06.941Z,95.71
2022-12-11T20:17:37.025Z,95.94
2022-12-11T20:20:05.206Z,95.84
2022-12-11T20:22:32.881Z,96.03
2022-12-11T20:25:00.956Z,95.90
2022-12-11T20:27:28.883Z,95.94
2022-12-11T20:29:57.785Z,95.77
2022-12-11T20:32:26.089Z,95.88
2022-12-11T20:34:58.031Z,95.89
2022-12-11T20:37:27.202Z,95.92
2022-12-11T20:39:55.262Z,95.87
2022-12-11T20:42:24.294Z,95.88
2022-12-11T20:44:52.490Z,95.99
2022-12-11T20:47:23.467Z,96.26
2022-12-11T20:49:52.543Z,96.30
2022-12-11T20:52:21.537Z,95.92
2022-12-11T20:54:49.565Z,96.25
2022-12-11T20:57:17.406Z,96.60
2022-12-11T20:59:45.794Z,96.73
2022-12-11T21:02:13.745Z,96.38
2022-12-11T21:04:41.971Z,96.60
2022-12-11T21:07:11.489Z,96.84
2022-12-11T21:09:39.622Z,96.75
2022-12-11T21:12:08.067Z,96.99
2022-12-11T21:14:36.477Z,96.89
2022-12-11T21:17:05.018Z,97.03
2022-12-11T21:19:36.431Z,96.98
2022-12-11T21:22:07.815Z,97.16
2022-12-11T21:24:35.702Z,96.80
2022-12-11T21:27:03.607Z,96.73
2022-12-11T21:29:31.939Z,97.08
2022-12-11T21:31:59.945Z,96.85
2022-12-11T21:34:28.076Z,97.07
2022-12-11T21:36:57.419Z,97.12
2022-12-11T21:39:28.544Z,97.20
2022-12-11T21:41:58.414Z,97.25
2022-12-11T21:47:15.992Z,97.29
2022-12-11T21:49:43.751Z,97.06
2022-12-11T21:52:12.167Z,97.13
2022-12-11T21:54:41.204Z,97.31
2022-12-11T21:57:09.047Z,97.31
2022-12-11T21:59:36.788Z,97.46
2022-12-11T22:02:04.967Z,97.33
2022-12-11T22:04:33.304Z,97.39
2022-12-11T22:07:01.123Z,97.37
2022-12-11T22:09:28.987Z,97.38
2022-12-11T22:11:58.767Z,97.42
2022-12-11T22:14:27.111Z,97.30
2022-12-11T22:16:55.074Z,97.21
2022-12-11T22:19:25.610Z,97.38
2022-12-11T22:21:57.182Z,97.24
2022-12-11T22:24:25.326Z,97.06
2022-12-11T22:26:54.719Z,97.25
2022-12-11T22:29:22.580Z,97.15
2022-12-11T22:31:50.810Z,97.03
2022-12-11T22:34:18.590Z,96.88
2022-12-11T22:36:46.283Z,96.98
2022-12-11T22:39:14.316Z,96.86
2022-12-11T22:41:45.152Z,96.79
2022-12-11T22:44:15.529Z,96.85
2022-12-11T22:46:49.705Z,96.71
2022-12-11T22:49:19.490Z,96.81
2022-12-11T22:51:48.089Z,96.88
2022-12-11T22:54:16.105Z,96.93
2022-12-11T22:56:43.856Z,96.95
2022-12-11T22:59:11.980Z,96.79
2022-12-11T23:01:40.795Z,96.81
2022-12-11T23:04:08.611Z,96.95
2022-12-11T23:06:36.894Z,97.08
2022-12-11T23:09:04.863Z,97.07
2022-12-11T23:11:36.584Z,97.02
2022-12-11T23:14:07.949Z,96.86
2022-12-11T23:16:35.691Z,96.77
2022-12-11T23:19:04.123Z,97.01
2022-12-11T23:21:33.114Z,97.14
2022-12-11T23:24:01.686Z,96.98
2022-12-11T23:26:30.147Z,96.92
2022-12-11T23:28:59.648Z,96.97
2022-12-11T23:31:28.334Z,97.24
2022-12-11T23:33:56.530Z,97.04
2022-12-11T23:36:26.186Z,97.12
2022-12-11T23:38:55.171Z,97.20
2022-12-11T23:41:24.200Z,97.08
2022-12-11T23:43:52.629Z,97.19
2022-12-11T23:46:23.730Z,97.10
2022-12-11T23:48:53.514Z,96.96
2022-12-11T23:51:22.969Z,97.11
2022-12-11T23:53:51.619Z,97.30
2022-12-11T23:56:23.360Z,97.31
2022-12-11T23:58:52.683Z,97.13
